Time;durP1;ratioP1;P1;durP2;ratioP2;P2;SDS_P1;SDS_P2;PMS_P1;PMS_P2;Temp;Humidity;BMP_temperature;BMP_pressure;BME280_temperature;BME280_humidity;BME280_pressure;Samples;Min_cycle;Max_cycle;Signal;HPM_P1;HPM_P2
2024/01/09 00:00:53;;;;;;;16.67;6.03;;;;;;;;;;4968333;28;20030;-69
2024/01/09 00:03:18;;;;;;;16.20;6.28;;;;;;;;;;4967219;28;20026;-69
2024/01/09 00:05:43;;;;;;;16.90;5.05;;;;;;;;;;4967551;28;20106;-69
2024/01/09 00:08:08;;;;;;;15.02;5.43;;;;;;;;;;4973865;28;20042;-69
2024/01/09 00:10:34;;;;;;;12.05;5.70;;;;;;;;;;4967485;28;20069;-69
2024/01/09 00:12:59;;;;;;;14.32;4.75;;;;;;;;;;4962679;28;20453;-69
2024/01/09 00:15:24;;;;;;;16.05;6.82;;;;;;;;;;4966990;28;20102;-69
2024/01/09 00:17:49;;;;;;;15.10;5.55;;;;;;;;;;4964377;28;20027;-69
2024/01/09 00:20:14;;;;;;;19.25;5.18;;;;;;;;;;4975617;28;20096;-68
2024/01/09 00:22:41;;;;;;;14.02;5.90;;;;;;;;;;4971783;28;20034;-69
2024/01/09 00:25:06;;;;;;;10.85;5.20;;;;;;;;;;4968186;28;20318;-69
2024/01/09 00:27:31;;;;;;;15.15;5.18;;;;;;;;;;4967418;28;20081;-69
2024/01/09 00:29:59;;;;;;;10.82;5.05;;;;;;;;;;4968343;28;20114;-69
2024/01/09 00:32:24;;;;;;;12.07;4.90;;;;;;;;;;4965926;28;20466;-69
2024/01/09 00:34:49;;;;;;;18.90;4.93;;;;;;;;;;4970561;28;20106;-69
2024/01/09 00:37:14;;;;;;;13.32;5.45;;;;;;;;;;4968626;28;20019;-69
2024/01/09 00:39:39;;;;;;;13.82;5.50;;;;;;;;;;4965384;28;20478;-69
2024/01/09 00:42:04;;;;;;;15.10;5.43;;;;;;;;;;4973443;28;20317;-69
2024/01/09 00:44:30;;;;;;;15.00;5.53;;;;;;;;;;4974091;28;20035;-69
2024/01/09 00:46:55;;;;;;;20.48;6.25;;;;;;;;;;4967982;28;20019;-69
2024/01/09 00:49:20;;;;;;;15.57;5.88;;;;;;;;;;4968111;28;20033;-69
2024/01/09 00:51:46;;;;;;;15.93;4.78;;;;;;;;;;4968788;28;20134;-69
2024/01/09 00:54:11;;;;;;;10.63;5.53;;;;;;;;;;4968741;28;20027;-69
2024/01/09 00:56:36;;;;;;;11.27;5.15;;;;;;;;;;4957368;28;20018;-69
2024/01/09 00:59:01;;;;;;;10.88;4.55;;;;;;;;;;4968231;28;20030;-69
2024/01/09 01:01:26;;;;;;;15.27;4.88;;;;;;;;;;4974024;28;20395;-69
2024/01/09 01:03:52;;;;;;;11.63;4.65;;;;;;;;;;4967727;28;20462;-69
2024/01/09 01:06:17;;;;;;;12.23;4.78;;;;;;;;;;4968136;28;20023;-69
2024/01/09 01:08:42;;;;;;;15.75;6.05;;;;;;;;;;4968522;28;20098;-69
2024/01/09 01:11:09;;;;;;;16.27;5.53;;;;;;;;;;4968234;28;20154;-69
2024/01/09 01:13:34;;;;;;;11.35;4.35;;;;;;;;;;4967901;28;20102;-69
2024/01/09 01:16:00;;;;;;;11.68;4.45;;;;;;;;;;4968089;28;20019;-69
2024/01/09 01:18:25;;;;;;;12.75;5.25;;;;;;;;;;4971683;28;20473;-69
2024/01/09 01:20:50;;;;;;;11.30;5.00;;;;;;;;;;4968653;28;20448;-69
2024/01/09 01:23:15;;;;;;;14.65;5.53;;;;;;;;;;4967211;28;20029;-69
2024/01/09 01:25:40;;;;;;;12.23;4.38;;;;;;;;;;4968586;28;20019;-69
2024/01/09 01:28:06;;;;;;;14.25;5.28;;;;;;;;;;4971446;28;20075;-69
2024/01/09 01:30:31;;;;;;;11.95;5.13;;;;;;;;;;4973144;28;20030;-69
2024/01/09 01:32:56;;;;;;;10.93;4.82;;;;;;;;;;4956194;28;20094;-69
2024/01/09 01:35:21;;;;;;;12.77;4.53;;;;;;;;;;4951679;28;20034;-69
2024/01/09 01:37:46;;;;;;;10.73;4.53;;;;;;;;;;4981318;28;20056;-69
2024/01/09 01:40:12;;;;;;;11.57;4.70;;;;;;;;;;4983155;28;20073;-69
2024/01/09 01:42:37;;;;;;;13.30;4.55;;;;;;;;;;4984559;28;20022;-69
2024/01/09 01:45:11;;;;;;;12.88;5.00;;;;;;;;;;4982681;28;20406;-69
2024/01/09 01:47:36;;;;;;;19.60;5.18;;;;;;;;;;4983145;28;20029;-69
2024/01/09 01:50:01;;;;;;;10.52;4.75;;;;;;;;;;4970847;28;20500;-69
2024/01/09 01:52:27;;;;;;;14.45;5.22;;;;;;;;;;4988841;28;20050;-69
2024/01/09 01:54:52;;;;;;;13.40;4.60;;;;;;;;;;4974151;28;20096;-69
2024/01/09 01:57:17;;;;;;;17.92;5.20;;;;;;;;;;4960753;28;20401;-69
2024/01/09 01:59:45;;;;;;;14.55;5.13;;;;;;;;;;4967176;28;20039;-69
2024/01/09 02:02:12;;;;;;;12.52;4.30;;;;;;;;;;4966756;28;20041;-69
2024/01/09 02:04:39;;;;;;;16.73;6.15;;;;;;;;;;4968034;28;20026;-69
2024/01/09 02:07:04;;;;;;;11.73;5.28;;;;;;;;;;4947815;28;20031;-69
2024/01/09 02:09:30;;;;;;;16.30;4.95;;;;;;;;;;4974970;28;20484;-69
2024/01/09 02:11:55;;;;;;;12.50;5.53;;;;;;;;;;4969732;28;20418;-69
2024/01/09 02:14:20;;;;;;;13.55;4.97;;;;;;;;;;4974981;28;20034;-70
2024/01/09 02:16:46;;;;;;;15.63;6.30;;;;;;;;;;4967890;28;20096;-69
2024/01/09 02:19:11;;;;;;;15.95;5.38;;;;;;;;;;4966631;28;20509;-69
2024/01/09 02:21:36;;;;;;;8.75;4.40;;;;;;;;;;4967575;28;20015;-69
2024/01/09 02:24:01;;;;;;;15.23;5.53;;;;;;;;;;4960982;28;20023;-70
2024/01/09 02:26:30;;;;;;;12.35;4.97;;;;;;;;;;4966808;28;20022;-69
2024/01/09 02:28:58;;;;;;;17.43;4.87;;;;;;;;;;4967192;28;20019;-70
2024/01/09 02:31:23;;;;;;;13.55;5.07;;;;;;;;;;4967080;28;20397;-70
2024/01/09 02:33:49;;;;;;;13.52;6.03;;;;;;;;;;4967189;28;20034;-69
2024/01/09 02:36:14;;;;;;;14.13;5.28;;;;;;;;;;4967221;28;20382;-69
2024/01/09 02:38:39;;;;;;;12.85;5.32;;;;;;;;;;4966602;28;20026;-70
2024/01/09 02:41:05;;;;;;;15.85;6.13;;;;;;;;;;4965279;28;20026;-69
2024/01/09 02:43:30;;;;;;;17.15;5.15;;;;;;;;;;4966788;28;20026;-69
2024/01/09 02:45:55;;;;;;;13.60;5.18;;;;;;;;;;4965221;28;20389;-69
2024/01/09 02:48:20;;;;;;;14.10;5.28;;;;;;;;;;4966579;28;20094;-69
2024/01/09 02:50:46;;;;;;;12.80;5.22;;;;;;;;;;4966912;28;20023;-70
2024/01/09 02:53:11;;;;;;;12.73;4.57;;;;;;;;;;4961191;28;20018;-69
2024/01/09 02:55:36;;;;;;;12.27;5.45;;;;;;;;;;4967054;28;20094;-69
2024/01/09 02:58:01;;;;;;;19.13;5.72;;;;;;;;;;4967027;28;20023;-70
2024/01/09 03:00:26;;;;;;;14.15;5.68;;;;;;;;;;4966706;28;20022;-70
2024/01/09 03:02:52;;;;;;;12.55;5.93;;;;;;;;;;4966808;28;20034;-69
2024/01/09 03:05:17;;;;;;;19.17;6.30;;;;;;;;;;4966522;28;20048;-69
2024/01/09 03:07:43;;;;;;;13.63;5.45;;;;;;;;;;4967347;28;20018;-69
2024/01/09 03:10:08;;;;;;;11.60;4.72;;;;;;;;;;4965280;28;20007;-69
2024/01/09 03:12:33;;;;;;;12.23;5.88;;;;;;;;;;4963535;28;20144;-69
2024/01/09 03:14:58;;;;;;;14.48;5.53;;;;;;;;;;4964346;28;20019;-69
2024/01/09 03:17:24;;;;;;;12.38;5.15;;;;;;;;;;4967508;28;20058;-70
2024/01/09 03:19:49;;;;;;;13.35;5.15;;;;;;;;;;4970202;28;20373;-69
2024/01/09 03:22:14;;;;;;;13.55;5.30;;;;;;;;;;4963299;28;20240;-69
2024/01/09 03:24:39;;;;;;;16.50;6.00;;;;;;;;;;4969968;28;20026;-69
2024/01/09 03:27:04;;;;;;;15.80;5.80;;;;;;;;;;4966257;28;20447;-69
2024/01/09 03:29:30;;;;;;;13.80;5.78;;;;;;;;;;4968353;28;20497;-69
2024/01/09 03:31:55;;;;;;;16.30;6.20;;;;;;;;;;4969541;28;20019;-69
2024/01/09 03:34:20;;;;;;;14.77;6.57;;;;;;;;;;4968467;28;20481;-69
2024/01/09 03:36:45;;;;;;;16.55;5.35;;;;;;;;;;4956039;28;20137;-69
2024/01/09 03:39:12;;;;;;;16.05;5.05;;;;;;;;;;4968537;28;20037;-69
2024/01/09 03:41:38;;;;;;;12.23;5.28;;;;;;;;;;4969414;28;20019;-69
2024/01/09 03:44:03;;;;;;;18.52;5.63;;;;;;;;;;4967185;28;20414;-70
2024/01/09 03:46:28;;;;;;;15.02;4.93;;;;;;;;;;4968100;28;20031;-69
2024/01/09 03:48:53;;;;;;;18.92;5.75;;;;;;;;;;4968987;28;20498;-69
2024/01/09 03:51:18;;;;;;;11.50;5.35;;;;;;;;;;4962519;28;20303;-69
2024/01/09 03:53:44;;;;;;;13.60;5.57;;;;;;;;;;4966543;28;20029;-69
2024/01/09 03:56:09;;;;;;;17.20;5.28;;;;;;;;;;4968302;28;20072;-69
2024/01/09 03:58:34;;;;;;;19.38;5.75;;;;;;;;;;4952213;28;20031;-69
2024/01/09 04:00:59;;;;;;;19.20;6.43;;;;;;;;;;4970857;28;20037;-69
2024/01/09 04:03:26;;;;;;;13.27;5.40;;;;;;;;;;4967082;28;20026;-69
2024/01/09 04:05:51;;;;;;;11.15;5.70;;;;;;;;;;4968831;28;20030;-69
2024/01/09 04:08:16;;;;;;;13.77;5.65;;;;;;;;;;4969252;28;20027;-70
2024/01/09 04:10:42;;;;;;;14.88;5.72;;;;;;;;;;4962670;28;20019;-70
2024/01/09 04:13:07;;;;;;;16.67;6.50;;;;;;;;;;4951163;28;20050;-70
2024/01/09 04:15:34;;;;;;;18.50;6.03;;;;;;;;;;4963312;28;20023;-70
2024/01/09 04:17:59;;;;;;;10.57;5.28;;;;;;;;;;4957719;28;20031;-70
2024/01/09 04:20:24;;;;;;;13.88;5.45;;;;;;;;;;4958600;28;20025;-70
2024/01/09 04:22:50;;;;;;;11.60;4.93;;;;;;;;;;4961483;28;20088;-70
2024/01/09 04:25:15;;;;;;;15.50;5.97;;;;;;;;;;4965531;28;20019;-70
2024/01/09 04:27:40;;;;;;;11.25;4.82;;;;;;;;;;4956567;28;20026;-70
2024/01/09 04:30:06;;;;;;;16.67;6.22;;;;;;;;;;4952361;28;20103;-70
2024/01/09 04:32:31;;;;;;;14.48;5.55;;;;;;;;;;4964165;28;20501;-70
2024/01/09 04:34:57;;;;;;;21.88;6.10;;;;;;;;;;4963004;28;20092;-69
2024/01/09 04:37:22;;;;;;;19.25;4.82;;;;;;;;;;4964975;28;20267;-70
2024/01/09 04:39:48;;;;;;;14.10;5.65;;;;;;;;;;4968435;28;20416;-69
2024/01/09 04:42:13;;;;;;;20.35;5.60;;;;;;;;;;4965819;28;20699;-70
2024/01/09 04:44:38;;;;;;;15.55;5.45;;;;;;;;;;4959523;28;20018;-70
2024/01/09 04:47:03;;;;;;;12.23;5.35;;;;;;;;;;4967668;28;20045;-70
2024/01/09 04:49:28;;;;;;;18.63;5.72;;;;;;;;;;4956496;28;20485;-70
2024/01/09 04:51:53;;;;;;;18.98;6.15;;;;;;;;;;4961784;28;20039;-70
2024/01/09 04:54:19;;;;;;;20.60;5.50;;;;;;;;;;4957223;28;20108;-69
2024/01/09 04:56:44;;;;;;;12.55;4.82;;;;;;;;;;4968647;28;20026;-70
2024/01/09 04:59:09;;;;;;;14.43;5.72;;;;;;;;;;4967520;28;20030;-70
2024/01/09 05:01:34;;;;;;;16.25;5.85;;;;;;;;;;4961230;28;20029;-70
2024/01/09 05:03:59;;;;;;;11.65;4.85;;;;;;;;;;4968118;28;20015;-70
2024/01/09 05:06:25;;;;;;;17.90;6.50;;;;;;;;;;4958993;28;20027;-70
2024/01/09 05:08:50;;;;;;;19.38;6.00;;;;;;;;;;4959413;28;20027;-69
2024/01/09 05:11:15;;;;;;;12.40;5.57;;;;;;;;;;4963476;28;20021;-70
2024/01/09 05:13:40;;;;;;;13.40;5.10;;;;;;;;;;4960916;28;20447;-70
2024/01/09 05:16:06;;;;;;;17.65;4.95;;;;;;;;;;4966389;28;20070;-70
2024/01/09 05:18:31;;;;;;;20.13;6.68;;;;;;;;;;4959789;28;20030;-70
2024/01/09 05:20:56;;;;;;;14.05;5.90;;;;;;;;;;4960587;28;20029;-69
2024/01/09 05:23:21;;;;;;;22.17;5.90;;;;;;;;;;4955060;28;20030;-69
2024/01/09 05:25:47;;;;;;;20.02;6.20;;;;;;;;;;4959651;28;20027;-70
2024/01/09 05:28:12;;;;;;;18.80;5.85;;;;;;;;;;4967561;28;20019;-70
2024/01/09 05:30:37;;;;;;;14.45;5.72;;;;;;;;;;4967982;28;20019;-70
2024/01/09 05:33:02;;;;;;;17.58;6.47;;;;;;;;;;4961642;28;20472;-70
2024/01/09 05:35:29;;;;;;;15.40;5.50;;;;;;;;;;4965342;28;20039;-70
2024/01/09 05:37:54;;;;;;;16.23;5.28;;;;;;;;;;4968369;28;20066;-70
2024/01/09 05:40:19;;;;;;;15.10;5.25;;;;;;;;;;4966487;28;20065;-70
2024/01/09 05:42:44;;;;;;;21.58;6.47;;;;;;;;;;4960545;28;20099;-70
2024/01/09 05:45:10;;;;;;;18.17;4.97;;;;;;;;;;4976595;28;20097;-70
2024/01/09 05:47:35;;;;;;;16.85;6.75;;;;;;;;;;4960222;28;20493;-70
2024/01/09 05:50:01;;;;;;;19.58;6.05;;;;;;;;;;4961598;28;20497;-70
2024/01/09 05:52:27;;;;;;;12.15;5.53;;;;;;;;;;4963572;28;20015;-70
2024/01/09 05:54:52;;;;;;;16.63;5.55;;;;;;;;;;4968158;28;20023;-69
2024/01/09 05:57:17;;;;;;;16.08;6.28;;;;;;;;;;4967338;28;20018;-70
2024/01/09 05:59:42;;;;;;;17.95;5.78;;;;;;;;;;4958230;28;20515;-69
2024/01/09 06:02:07;;;;;;;17.50;6.07;;;;;;;;;;4960168;28;20019;-69
2024/01/09 06:04:33;;;;;;;24.85;5.93;;;;;;;;;;4966762;28;20049;-70
2024/01/09 06:06:58;;;;;;;12.45;4.93;;;;;;;;;;4961692;28;20034;-70
2024/01/09 06:09:23;;;;;;;14.40;5.35;;;;;;;;;;4959797;28;20077;-70
2024/01/09 06:11:48;;;;;;;14.70;5.95;;;;;;;;;;4967806;28;20386;-69
2024/01/09 06:14:13;;;;;;;16.88;5.65;;;;;;;;;;4958263;28;20028;-70
2024/01/09 06:16:39;;;;;;;17.25;6.35;;;;;;;;;;4958844;28;20478;-69
2024/01/09 06:19:04;;;;;;;19.15;6.15;;;;;;;;;;4958926;28;20032;-69
2024/01/09 06:21:29;;;;;;;17.88;6.18;;;;;;;;;;4965625;28;20026;-70
2024/01/09 06:23:54;;;;;;;17.75;5.97;;;;;;;;;;4966914;28;20027;-69
2024/01/09 06:26:19;;;;;;;11.52;6.15;;;;;;;;;;4964716;28;20023;-69
2024/01/09 06:28:44;;;;;;;17.90;7.07;;;;;;;;;;4967729;28;20480;-69
2024/01/09 06:31:10;;;;;;;16.48;6.57;;;;;;;;;;4965330;28;20030;-70
2024/01/09 06:33:35;;;;;;;13.02;5.32;;;;;;;;;;4960995;28;20089;-70
2024/01/09 06:36:00;;;;;;;22.05;6.60;;;;;;;;;;4968486;28;20494;-70
2024/01/09 06:38:25;;;;;;;17.60;6.60;;;;;;;;;;4956201;28;20047;-70
2024/01/09 06:40:51;;;;;;;16.80;6.60;;;;;;;;;;4956181;28;20031;-70
2024/01/09 06:43:16;;;;;;;12.07;5.68;;;;;;;;;;4967395;28;20038;-70
2024/01/09 06:45:42;;;;;;;16.58;5.80;;;;;;;;;;4966391;28;20025;-69
2024/01/09 06:48:07;;;;;;;14.55;6.22;;;;;;;;;;4950955;28;20023;-69
2024/01/09 06:50:32;;;;;;;24.45;7.00;;;;;;;;;;4960827;28;20016;-70
2024/01/09 06:52:58;;;;;;;14.93;5.85;;;;;;;;;;4960055;28;20038;-70
2024/01/09 06:55:23;;;;;;;17.08;6.00;;;;;;;;;;4961618;28;20596;-69
2024/01/09 06:57:48;;;;;;;19.38;6.80;;;;;;;;;;4966339;28;20084;-70
2024/01/09 07:00:14;;;;;;;16.60;6.05;;;;;;;;;;4967228;28;20030;-70
2024/01/09 07:02:39;;;;;;;18.40;6.10;;;;;;;;;;4958140;28;20062;-69
2024/01/09 07:05:05;;;;;;;8.55;4.70;;;;;;;;;;4962665;28;20039;-69
2024/01/09 07:07:30;;;;;;;11.40;5.50;;;;;;;;;;4963879;28;20582;-70
2024/01/09 07:09:56;;;;;;;18.48;6.20;;;;;;;;;;4966658;28;20442;-70
2024/01/09 07:12:21;;;;;;;13.88;5.75;;;;;;;;;;4961394;28;20019;-70
2024/01/09 07:14:46;;;;;;;21.17;7.32;;;;;;;;;;4970672;28;20027;-70
2024/01/09 07:17:11;;;;;;;21.20;6.55;;;;;;;;;;4969594;28;20510;-69
2024/01/09 07:19:37;;;;;;;18.75;6.35;;;;;;;;;;4969318;28;20057;-70
2024/01/09 07:22:02;;;;;;;16.42;5.78;;;;;;;;;;4968751;28;20026;-69
2024/01/09 07:24:27;;;;;;;17.35;5.97;;;;;;;;;;4960706;28;20063;-69
2024/01/09 07:26:52;;;;;;;22.52;6.05;;;;;;;;;;4971391;28;20377;-70
2024/01/09 07:29:19;;;;;;;12.65;5.38;;;;;;;;;;4963390;28;20022;-69
2024/01/09 07:31:44;;;;;;;17.88;5.97;;;;;;;;;;4967694;28;20026;-69
2024/01/09 07:34:09;;;;;;;15.77;6.53;;;;;;;;;;4968131;28;20050;-69
2024/01/09 07:36:35;;;;;;;19.60;7.28;;;;;;;;;;4968566;28;20050;-71
2024/01/09 07:39:00;;;;;;;17.75;6.25;;;;;;;;;;4967088;28;20470;-70
2024/01/09 07:41:25;;;;;;;20.05;6.28;;;;;;;;;;4961757;28;20010;-70
2024/01/09 07:43:50;;;;;;;30.15;9.80;;;;;;;;;;4963588;28;20093;-69
2024/01/09 07:46:17;;;;;;;50.40;16.15;;;;;;;;;;4962568;28;20045;-70
2024/01/09 07:48:42;;;;;;;41.35;13.38;;;;;;;;;;4956369;28;20523;-70
2024/01/09 07:51:07;;;;;;;28.92;10.93;;;;;;;;;;4960988;28;20098;-69
2024/01/09 07:53:32;;;;;;;24.15;9.07;;;;;;;;;;4966909;28;20026;-70
2024/01/09 07:55:57;;;;;;;19.20;7.07;;;;;;;;;;4967125;28;20046;-70
2024/01/09 07:58:23;;;;;;;25.17;10.43;;;;;;;;;;4965845;28;20130;-70
2024/01/09 08:00:48;;;;;;;21.42;8.55;;;;;;;;;;4966650;28;20023;-69
2024/01/09 08:03:14;;;;;;;29.92;9.98;;;;;;;;;;4959312;28;20038;-70
2024/01/09 08:05:39;;;;;;;24.42;8.15;;;;;;;;;;4958630;28;20108;-69
2024/01/09 08:08:04;;;;;;;19.15;7.32;;;;;;;;;;4969700;28;20379;-70
2024/01/09 08:10:30;;;;;;;29.67;7.72;;;;;;;;;;4969334;28;20050;-70
2024/01/09 08:12:55;;;;;;;23.40;7.60;;;;;;;;;;4954990;28;20030;-70
2024/01/09 08:15:21;;;;;;;21.77;9.75;;;;;;;;;;4965097;28;20382;-70
2024/01/09 08:17:46;;;;;;;30.98;9.65;;;;;;;;;;4960295;28;20023;-70
2024/01/09 08:20:11;;;;;;;26.85;9.10;;;;;;;;;;4965865;28;20466;-70
2024/01/09 08:22:36;;;;;;;21.75;8.40;;;;;;;;;;4968534;28;20023;-70
2024/01/09 08:25:02;;;;;;;24.73;8.15;;;;;;;;;;4968618;28;20027;-70
2024/01/09 08:27:27;;;;;;;25.77;9.05;;;;;;;;;;4962278;28;20014;-70
2024/01/09 08:29:53;;;;;;;23.75;8.85;;;;;;;;;;4962584;28;20019;-70
2024/01/09 08:32:18;;;;;;;26.85;9.32;;;;;;;;;;4963628;28;20038;-70
2024/01/09 08:34:43;;;;;;;24.25;9.20;;;;;;;;;;4966598;28;20033;-70
2024/01/09 08:37:09;;;;;;;19.30;6.95;;;;;;;;;;4967554;28;20019;-70
2024/01/09 08:39:34;;;;;;;17.42;7.50;;;;;;;;;;4950899;28;20023;-70
2024/01/09 08:41:59;;;;;;;17.73;7.07;;;;;;;;;;4966345;28;20367;-70
2024/01/09 08:44:26;;;;;;;18.73;7.93;;;;;;;;;;4968072;28;20070;-69
2024/01/09 08:46:52;;;;;;;20.80;8.13;;;;;;;;;;4964776;28;20019;-68
2024/01/09 08:49:17;;;;;;;17.10;7.05;;;;;;;;;;4966480;28;20019;-71
2024/01/09 08:51:42;;;;;;;17.20;7.10;;;;;;;;;;4958533;28;20387;-70
2024/01/09 08:54:07;;;;;;;17.23;6.47;;;;;;;;;;4966370;28;20137;-69
2024/01/09 08:56:32;;;;;;;15.13;6.47;;;;;;;;;;4958719;28;20094;-69
2024/01/09 08:58:58;;;;;;;13.88;6.15;;;;;;;;;;4957476;28;20039;-69
2024/01/09 09:01:23;;;;;;;23.55;7.20;;;;;;;;;;4957756;28;20497;-69
2024/01/09 09:03:48;;;;;;;30.33;7.85;;;;;;;;;;4960396;28;20030;-69
2024/01/09 09:06:14;;;;;;;21.23;7.43;;;;;;;;;;4966976;28;20037;-70
2024/01/09 09:08:39;;;;;;;22.52;7.40;;;;;;;;;;4963000;28;20100;-70
2024/01/09 09:11:06;;;;;;;20.02;7.78;;;;;;;;;;4963509;28;20022;-70
2024/01/09 09:13:31;;;;;;;12.43;6.38;;;;;;;;;;4962322;28;20025;-70
2024/01/09 09:15:57;;;;;;;15.77;7.00;;;;;;;;;;4960773;28;20027;-70
2024/01/09 09:18:22;;;;;;;14.32;7.25;;;;;;;;;;4960542;28;20305;-69
2024/01/09 09:20:47;;;;;;;15.52;7.10;;;;;;;;;;4961309;28;20023;-70
2024/01/09 09:23:12;;;;;;;17.93;7.90;;;;;;;;;;4968533;28;20119;-70
2024/01/09 09:25:37;;;;;;;16.63;6.67;;;;;;;;;;4963475;28;20302;-70
2024/01/09 09:28:03;;;;;;;17.30;7.60;;;;;;;;;;4965998;28;20763;-70
2024/01/09 09:30:28;;;;;;;16.98;7.47;;;;;;;;;;4968004;28;20304;-70
2024/01/09 09:32:56;;;;;;;16.88;6.35;;;;;;;;;;4965165;28;20027;-70
2024/01/09 09:35:21;;;;;;;16.40;8.35;;;;;;;;;;4965826;28;20174;-70
2024/01/09 09:37:46;;;;;;;15.63;6.37;;;;;;;;;;4986882;28;20443;-70
2024/01/09 09:40:12;;;;;;;14.10;6.60;;;;;;;;;;4966709;28;20258;-71
2024/01/09 09:42:38;;;;;;;15.60;6.60;;;;;;;;;;4956442;28;20031;-70
2024/01/09 09:45:06;;;;;;;14.23;6.28;;;;;;;;;;4952379;28;20024;-70
2024/01/09 09:47:32;;;;;;;12.73;6.30;;;;;;;;;;4969112;28;20481;-70
2024/01/09 09:49:57;;;;;;;15.65;6.18;;;;;;;;;;4961929;28;20189;-70
2024/01/09 09:52:24;;;;;;;13.65;5.70;;;;;;;;;;4962267;28;20069;-70
2024/01/09 09:54:50;;;;;;;12.45;5.95;;;;;;;;;;4957410;28;20019;-70
2024/01/09 09:57:16;;;;;;;9.77;4.78;;;;;;;;;;4967928;28;20257;-70
2024/01/09 09:59:41;;;;;;;12.82;6.55;;;;;;;;;;4960817;28;20418;-70
2024/01/09 10:02:10;;;;;;;10.87;4.77;;;;;;;;;;4960919;28;20027;-69
2024/01/09 10:04:45;;;;;;;11.65;5.32;;;;;;;;;;4967894;28;20288;-69
2024/01/09 10:07:11;;;;;;;13.35;5.00;;;;;;;;;;4965086;28;20471;-70
2024/01/09 10:09:42;;;;;;;9.50;4.97;;;;;;;;;;4967953;28;20034;-70
2024/01/09 10:12:07;;;;;;;10.13;5.07;;;;;;;;;;4967524;28;20023;-70
2024/01/09 10:14:32;;;;;;;10.02;5.28;;;;;;;;;;4963148;28;20102;-70
2024/01/09 10:17:03;;;;;;;12.10;5.90;;;;;;;;;;4962337;28;20089;-70
2024/01/09 10:19:28;;;;;;;8.80;4.57;;;;;;;;;;4964818;28;20315;-70
2024/01/09 10:21:53;;;;;;;7.13;4.30;;;;;;;;;;4961526;28;20031;-70
2024/01/09 10:24:19;;;;;;;12.57;5.78;;;;;;;;;;4966605;28;20668;-69
2024/01/09 10:26:44;;;;;;;9.80;4.35;;;;;;;;;;4965699;28;20023;-69
2024/01/09 10:29:10;;;;;;;10.77;4.30;;;;;;;;;;4960823;28;20080;-69
2024/01/09 10:31:35;;;;;;;9.32;4.75;;;;;;;;;;4967749;28;20031;-70
2024/01/09 10:34:00;;;;;;;7.95;4.18;;;;;;;;;;4967763;28;20031;-70
2024/01/09 10:36:26;;;;;;;12.57;5.33;;;;;;;;;;4976753;28;20525;-70
2024/01/09 10:38:52;;;;;;;9.02;4.47;;;;;;;;;;4966199;28;20260;-70
2024/01/09 10:41:18;;;;;;;10.10;4.55;;;;;;;;;;4966798;28;20031;-70
2024/01/09 10:43:43;;;;;;;10.05;4.30;;;;;;;;;;4964394;28;20450;-70
2024/01/09 10:46:09;;;;;;;11.18;4.38;;;;;;;;;;4969179;28;20069;-70
2024/01/09 10:48:34;;;;;;;11.00;4.43;;;;;;;;;;4963623;28;20500;-70
2024/01/09 10:51:00;;;;;;;10.00;4.90;;;;;;;;;;4970813;28;20015;-70
2024/01/09 10:53:27;;;;;;;9.35;4.93;;;;;;;;;;4963641;28;20469;-72
2024/01/09 10:55:54;;;;;;;6.97;3.97;;;;;;;;;;4962393;28;20039;-69
2024/01/09 10:58:19;;;;;;;9.93;4.47;;;;;;;;;;4964476;28;20019;-69
2024/01/09 11:00:45;;;;;;;10.77;4.43;;;;;;;;;;4968363;28;20471;-69
2024/01/09 11:03:11;;;;;;;8.57;4.28;;;;;;;;;;4972912;28;20106;-69
2024/01/09 11:05:37;;;;;;;8.00;4.03;;;;;;;;;;4969351;28;20072;-69
2024/01/09 11:08:04;;;;;;;20.92;4.25;;;;;;;;;;4966102;28;20027;-69
2024/01/09 11:10:30;;;;;;;9.85;3.97;;;;;;;;;;4954506;28;20489;-70
2024/01/09 11:12:57;;;;;;;8.88;4.28;;;;;;;;;;4960045;28;20031;-69
2024/01/09 11:15:25;;;;;;;8.77;4.70;;;;;;;;;;4970776;28;20014;-70
2024/01/09 11:17:53;;;;;;;12.15;4.88;;;;;;;;;;4970093;28;20030;-69
2024/01/09 11:20:19;;;;;;;10.27;4.60;;;;;;;;;;4970473;28;20027;-69
2024/01/09 11:22:44;;;;;;;10.20;4.00;;;;;;;;;;4964537;28;20302;-69
2024/01/09 11:25:12;;;;;;;11.95;4.22;;;;;;;;;;4968761;28;20019;-69
2024/01/09 11:27:38;;;;;;;10.18;5.18;;;;;;;;;;4971301;28;20027;-69
2024/01/09 11:30:05;;;;;;;8.65;3.75;;;;;;;;;;4952146;28;20065;-69
2024/01/09 11:32:32;;;;;;;8.00;3.58;;;;;;;;;;4968316;28;20007;-69
2024/01/09 11:35:08;;;;;;;12.15;4.00;;;;;;;;;;4963410;28;20038;-69
2024/01/09 11:37:35;;;;;;;9.63;3.63;;;;;;;;;;4964480;28;20027;-69
2024/01/09 11:40:00;;;;;;;6.97;3.65;;;;;;;;;;4965098;28;20027;-69
2024/01/09 11:42:26;;;;;;;10.05;4.05;;;;;;;;;;4964065;28;20532;-69
2024/01/09 11:44:52;;;;;;;10.35;4.63;;;;;;;;;;4961565;28;20059;-69
2024/01/09 11:47:17;;;;;;;9.25;4.32;;;;;;;;;;4968824;28;20388;-69
2024/01/09 11:49:42;;;;;;;18.57;5.80;;;;;;;;;;4972185;28;20019;-69
2024/01/09 11:52:08;;;;;;;12.67;4.60;;;;;;;;;;4968358;28;20259;-69
2024/01/09 11:54:33;;;;;;;12.88;4.70;;;;;;;;;;4966578;28;20683;-69
2024/01/09 11:56:59;;;;;;;9.90;4.40;;;;;;;;;;4966872;28;20027;-69
2024/01/09 11:59:24;;;;;;;12.98;5.97;;;;;;;;;;4968526;28;20113;-69
2024/01/09 12:01:49;;;;;;;11.82;4.53;;;;;;;;;;4972316;28;20031;-69
2024/01/09 12:04:14;;;;;;;13.65;5.47;;;;;;;;;;4968951;28;20030;-70
2024/01/09 12:06:40;;;;;;;12.10;5.32;;;;;;;;;;4960898;28;20398;-70
2024/01/09 12:09:05;;;;;;;13.07;4.78;;;;;;;;;;4965908;28;20026;-70
2024/01/09 12:11:30;;;;;;;9.73;4.68;;;;;;;;;;4967650;28;20019;-70
2024/01/09 12:14:02;;;;;;;17.25;5.38;;;;;;;;;;4964216;28;20030;-69
2024/01/09 12:16:31;;;;;;;14.98;5.28;;;;;;;;;;4952249;28;20444;-69
2024/01/09 12:18:56;;;;;;;11.02;5.30;;;;;;;;;;4968952;28;20030;-69
2024/01/09 12:21:26;;;;;;;11.10;4.50;;;;;;;;;;4969215;28;20043;-69
2024/01/09 12:23:51;;;;;;;12.05;4.80;;;;;;;;;;4969413;28;20027;-70
2024/01/09 12:26:18;;;;;;;12.75;5.28;;;;;;;;;;4969039;28;20564;-70
2024/01/09 12:28:44;;;;;;;14.15;4.90;;;;;;;;;;4958346;28;20019;-69
2024/01/09 12:31:09;;;;;;;10.45;4.32;;;;;;;;;;4970102;28;20019;-70
2024/01/09 12:33:35;;;;;;;11.77;5.50;;;;;;;;;;4967825;28;20023;-70
2024/01/09 12:36:00;;;;;;;11.40;5.00;;;;;;;;;;4969253;28;20386;-70
2024/01/09 12:38:26;;;;;;;12.52;4.70;;;;;;;;;;4968751;28;20035;-69
2024/01/09 12:41:01;;;;;;;13.70;4.38;;;;;;;;;;4963373;28;20050;-70
2024/01/09 12:43:30;;;;;;;9.52;4.65;;;;;;;;;;4969706;28;20556;-69
2024/01/09 12:45:56;;;;;;;17.55;5.55;;;;;;;;;;4968823;28;20384;-69
2024/01/09 12:48:21;;;;;;;11.35;5.32;;;;;;;;;;4960714;28;20022;-69
2024/01/09 12:51:05;;;;;;;10.55;4.95;;;;;;;;;;4963590;28;20547;-70
2024/01/09 12:53:32;;;;;;;11.65;5.40;;;;;;;;;;4965295;28;20051;-69
2024/01/09 12:56:04;;;;;;;14.02;5.25;;;;;;;;;;4965795;28;20019;-70
2024/01/09 12:58:29;;;;;;;11.25;5.00;;;;;;;;;;4956448;28;20393;-70
2024/01/09 13:00:54;;;;;;;9.55;4.32;;;;;;;;;;4966729;28;20034;-69
2024/01/09 13:03:19;;;;;;;18.48;5.40;;;;;;;;;;4970154;28;20029;-69
2024/01/09 13:05:45;;;;;;;11.75;5.35;;;;;;;;;;4962033;28;20034;-69
2024/01/09 13:08:11;;;;;;;12.00;4.67;;;;;;;;;;4967026;28;20097;-69
2024/01/09 13:10:36;;;;;;;12.25;4.88;;;;;;;;;;4970360;28;20341;-70
2024/01/09 13:13:01;;;;;;;15.40;4.63;;;;;;;;;;4968363;28;20094;-69
2024/01/09 13:15:26;;;;;;;9.88;4.05;;;;;;;;;;4968300;28;20621;-70
2024/01/09 13:17:52;;;;;;;9.83;4.00;;;;;;;;;;4962764;28;20080;-70
2024/01/09 13:20:17;;;;;;;11.13;5.57;;;;;;;;;;4964231;28;20297;-69
2024/01/09 13:22:42;;;;;;;11.13;4.32;;;;;;;;;;4968620;28;20050;-70
2024/01/09 13:25:08;;;;;;;10.27;4.10;;;;;;;;;;4959625;28;20398;-70
2024/01/09 13:27:33;;;;;;;8.02;3.80;;;;;;;;;;4962477;28;20251;-70
2024/01/09 13:29:58;;;;;;;9.80;3.80;;;;;;;;;;4961957;28;20496;-70
2024/01/09 13:32:23;;;;;;;11.97;4.17;;;;;;;;;;4966642;28;20261;-70
2024/01/09 13:34:48;;;;;;;9.93;3.95;;;;;;;;;;4960540;28;20773;-70
2024/01/09 13:37:13;;;;;;;14.23;3.88;;;;;;;;;;4965660;28;20438;-70
2024/01/09 13:39:39;;;;;;;7.33;3.67;;;;;;;;;;4968158;28;20041;-69
2024/01/09 13:42:04;;;;;;;8.20;3.70;;;;;;;;;;4969858;28;20357;-70
2024/01/09 13:44:29;;;;;;;9.10;4.20;;;;;;;;;;4967759;28;20536;-70
2024/01/09 13:46:55;;;;;;;9.60;3.65;;;;;;;;;;4967853;28;20080;-70
2024/01/09 13:49:20;;;;;;;7.22;3.38;;;;;;;;;;4960373;28;20367;-68
2024/01/09 13:51:45;;;;;;;8.87;3.60;;;;;;;;;;4960306;28;20019;-68
2024/01/09 13:54:11;;;;;;;11.48;4.25;;;;;;;;;;4967933;28;20337;-69
2024/01/09 13:56:36;;;;;;;8.07;3.30;;;;;;;;;;4967873;28;20543;-68
2024/01/09 13:59:03;;;;;;;8.25;3.92;;;;;;;;;;4967508;28;20261;-67
2024/01/09 14:01:28;;;;;;;7.18;3.78;;;;;;;;;;4954972;28;20135;-67
2024/01/09 14:03:53;;;;;;;10.25;4.35;;;;;;;;;;4964147;28;20197;-67
2024/01/09 14:06:19;;;;;;;10.73;3.90;;;;;;;;;;4965993;28;20035;-67
2024/01/09 14:08:44;;;;;;;21.70;6.68;;;;;;;;;;4968685;28;20255;-67
2024/01/09 14:11:09;;;;;;;12.07;4.38;;;;;;;;;;4961865;28;20390;-67
2024/01/09 14:13:34;;;;;;;10.73;4.60;;;;;;;;;;4964507;28;20077;-67
2024/01/09 14:15:59;;;;;;;19.10;5.03;;;;;;;;;;4966388;28;20278;-67
2024/01/09 14:18:25;;;;;;;9.20;4.30;;;;;;;;;;4960661;28;20402;-67
2024/01/09 14:20:50;;;;;;;10.38;4.40;;;;;;;;;;4968713;28;20088;-69